sensor_id;sensor_type;location;lat;lon;timestamp;temperature;humidity
78647;DHT22;67961;43.460;3.762;2023-05-07T00:00:03;16.80;80.40
78647;DHT22;67961;43.460;3.762;2023-05-07T00:02:33;16.80;80.50
78647;DHT22;67961;43.460;3.762;2023-05-07T00:04:58;16.80;80.60
78647;DHT22;67961;43.460;3.762;2023-05-07T00:07:24;16.80;80.80
78647;DHT22;67961;43.460;3.762;2023-05-07T00:09:50;16.80;80.90
78647;DHT22;67961;43.460;3.762;2023-05-07T00:12:15;16.90;80.90
78647;DHT22;67961;43.460;3.762;2023-05-07T00:14:41;16.90;80.80
78647;DHT22;67961;43.460;3.762;2023-05-07T00:17:07;17.00;81.00
78647;DHT22;67961;43.460;3.762;2023-05-07T00:19:32;17.00;81.00
78647;DHT22;67961;43.460;3.762;2023-05-07T00:21:58;17.00;80.90
78647;DHT22;67961;43.460;3.762;2023-05-07T00:24:24;17.00;80.80
78647;DHT22;67961;43.460;3.762;2023-05-07T00:26:50;17.00;81.00
78647;DHT22;67961;43.460;3.762;2023-05-07T00:29:16;17.00;80.90
78647;DHT22;67961;43.460;3.762;2023-05-07T00:31:41;17.00;81.00
78647;DHT22;67961;43.460;3.762;2023-05-07T00:34:07;17.00;81.20
78647;DHT22;67961;43.460;3.762;2023-05-07T00:36:32;17.00;81.10
78647;DHT22;67961;43.460;3.762;2023-05-07T00:39:00;17.00;81.00
78647;DHT22;67961;43.460;3.762;2023-05-07T00:41:27;17.00;80.90
78647;DHT22;67961;43.460;3.762;2023-05-07T00:43:52;17.00;80.80
78647;DHT22;67961;43.460;3.762;2023-05-07T00:46:20;17.00;80.70
78647;DHT22;67961;43.460;3.762;2023-05-07T00:48:47;17.00;80.40
78647;DHT22;67961;43.460;3.762;2023-05-07T00:51:13;17.00;80.30
78647;DHT22;67961;43.460;3.762;2023-05-07T00:53:39;17.00;80.50
78647;DHT22;67961;43.460;3.762;2023-05-07T00:56:06;17.00;80.60
78647;DHT22;67961;43.460;3.762;2023-05-07T00:58:35;16.90;80.70
78647;DHT22;67961;43.460;3.762;2023-05-07T01:01:01;17.00;80.60
78647;DHT22;67961;43.460;3.762;2023-05-07T01:03:27;17.00;80.50
78647;DHT22;67961;43.460;3.762;2023-05-07T01:05:54;17.00;80.40
78647;DHT22;67961;43.460;3.762;2023-05-07T01:08:22;16.90;80.40
78647;DHT22;67961;43.460;3.762;2023-05-07T01:10:48;16.90;80.30
78647;DHT22;67961;43.460;3.762;2023-05-07T01:13:14;16.90;80.10
78647;DHT22;67961;43.460;3.762;2023-05-07T01:15:40;16.90;80.00
78647;DHT22;67961;43.460;3.762;2023-05-07T01:18:07;16.90;79.80
78647;DHT22;67961;43.460;3.762;2023-05-07T01:20:33;16.90;79.80
78647;DHT22;67961;43.460;3.762;2023-05-07T01:23:00;16.90;79.70
78647;DHT22;67961;43.460;3.762;2023-05-07T01:25:26;16.90;79.50
78647;DHT22;67961;43.460;3.762;2023-05-07T01:27:52;16.80;79.50
78647;DHT22;67961;43.460;3.762;2023-05-07T01:30:19;16.90;79.40
78647;DHT22;67961;43.460;3.762;2023-05-07T01:33:08;16.90;79.30
78647;DHT22;67961;43.460;3.762;2023-05-07T01:35:40;16.80;79.30
78647;DHT22;67961;43.460;3.762;2023-05-07T01:38:07;16.80;79.30
78647;DHT22;67961;43.460;3.762;2023-05-07T01:40:34;16.80;79.30
78647;DHT22;67961;43.460;3.762;2023-05-07T01:43:01;16.80;79.20
78647;DHT22;67961;43.460;3.762;2023-05-07T01:45:28;16.80;79.30
78647;DHT22;67961;43.460;3.762;2023-05-07T01:47:54;16.80;79.30
78647;DHT22;67961;43.460;3.762;2023-05-07T01:50:20;16.80;79.20
78647;DHT22;67961;43.460;3.762;2023-05-07T01:52:49;16.80;79.30
78647;DHT22;67961;43.460;3.762;2023-05-07T01:55:15;16.80;79.30
78647;DHT22;67961;43.460;3.762;2023-05-07T01:57:41;16.80;79.30
78647;DHT22;67961;43.460;3.762;2023-05-07T02:00:07;16.80;79.20
78647;DHT22;67961;43.460;3.762;2023-05-07T02:02:34;16.80;79.00
78647;DHT22;67961;43.460;3.762;2023-05-07T02:05:00;16.80;79.00
78647;DHT22;67961;43.460;3.762;2023-05-07T02:07:26;16.80;79.10
78647;DHT22;67961;43.460;3.762;2023-05-07T02:09:52;16.80;79.20
78647;DHT22;67961;43.460;3.762;2023-05-07T02:12:18;16.80;79.10
78647;DHT22;67961;43.460;3.762;2023-05-07T02:14:43;16.80;79.10
78647;DHT22;67961;43.460;3.762;2023-05-07T02:17:09;16.80;79.20
78647;DHT22;67961;43.460;3.762;2023-05-07T02:19:35;16.80;79.10
78647;DHT22;67961;43.460;3.762;2023-05-07T02:22:00;16.80;79.20
78647;DHT22;67961;43.460;3.762;2023-05-07T02:24:26;16.70;79.30
78647;DHT22;67961;43.460;3.762;2023-05-07T02:26:51;16.70;79.40
78647;DHT22;67961;43.460;3.762;2023-05-07T02:29:17;16.70;79.40
78647;DHT22;67961;43.460;3.762;2023-05-07T02:31:43;16.70;79.40
78647;DHT22;67961;43.460;3.762;2023-05-07T02:34:09;16.70;79.60
78647;DHT22;67961;43.460;3.762;2023-05-07T02:36:34;16.70;79.70
78647;DHT22;67961;43.460;3.762;2023-05-07T02:39:00;16.70;79.80
78647;DHT22;67961;43.460;3.762;2023-05-07T02:41:26;16.70;79.70
78647;DHT22;67961;43.460;3.762;2023-05-07T02:43:53;16.70;79.80
78647;DHT22;67961;43.460;3.762;2023-05-07T02:46:19;16.70;79.80
78647;DHT22;67961;43.460;3.762;2023-05-07T02:48:44;16.70;79.90
78647;DHT22;67961;43.460;3.762;2023-05-07T02:51:10;16.70;79.80
78647;DHT22;67961;43.460;3.762;2023-05-07T02:53:36;16.70;79.70
78647;DHT22;67961;43.460;3.762;2023-05-07T02:56:02;16.60;79.70
78647;DHT22;67961;43.460;3.762;2023-05-07T02:58:28;16.60;79.70
78647;DHT22;67961;43.460;3.762;2023-05-07T03:00:53;16.60;79.70
78647;DHT22;67961;43.460;3.762;2023-05-07T03:03:22;16.50;79.70
78647;DHT22;67961;43.460;3.762;2023-05-07T03:05:48;16.40;79.90
78647;DHT22;67961;43.460;3.762;2023-05-07T03:08:13;16.40;80.00
78647;DHT22;67961;43.460;3.762;2023-05-07T03:10:39;16.40;80.20
78647;DHT22;67961;43.460;3.762;2023-05-07T03:13:05;16.40;80.10
78647;DHT22;67961;43.460;3.762;2023-05-07T03:15:31;16.40;80.00
78647;DHT22;67961;43.460;3.762;2023-05-07T03:17:56;16.40;80.00
78647;DHT22;67961;43.460;3.762;2023-05-07T03:20:22;16.40;79.90
78647;DHT22;67961;43.460;3.762;2023-05-07T03:22:48;16.40;80.20
78647;DHT22;67961;43.460;3.762;2023-05-07T03:25:13;16.40;80.10
78647;DHT22;67961;43.460;3.762;2023-05-07T03:27:40;16.40;80.00
78647;DHT22;67961;43.460;3.762;2023-05-07T03:30:07;16.50;79.90
78647;DHT22;67961;43.460;3.762;2023-05-07T03:32:34;16.40;80.10
78647;DHT22;67961;43.460;3.762;2023-05-07T03:35:00;16.50;79.80
78647;DHT22;67961;43.460;3.762;2023-05-07T03:37:26;16.50;79.30
78647;DHT22;67961;43.460;3.762;2023-05-07T03:39:52;16.50;79.00
78647;DHT22;67961;43.460;3.762;2023-05-07T03:42:17;16.60;78.80
78647;DHT22;67961;43.460;3.762;2023-05-07T03:44:43;16.60;78.70
78647;DHT22;67961;43.460;3.762;2023-05-07T03:47:09;16.50;78.70
78647;DHT22;67961;43.460;3.762;2023-05-07T03:49:35;16.50;78.70
78647;DHT22;67961;43.460;3.762;2023-05-07T03:52:01;16.50;78.60
78647;DHT22;67961;43.460;3.762;2023-05-07T03:54:27;16.60;78.60
78647;DHT22;67961;43.460;3.762;2023-05-07T03:56:52;16.60;78.50
78647;DHT22;67961;43.460;3.762;2023-05-07T03:59:18;16.60;78.50
78647;DHT22;67961;43.460;3.762;2023-05-07T04:01:43;16.60;78.40
78647;DHT22;67961;43.460;3.762;2023-05-07T04:04:09;16.60;78.50
78647;DHT22;67961;43.460;3.762;2023-05-07T04:06:35;16.60;78.30
78647;DHT22;67961;43.460;3.762;2023-05-07T04:09:00;16.60;78.20
78647;DHT22;67961;43.460;3.762;2023-05-07T04:11:26;16.60;78.20
78647;DHT22;67961;43.460;3.762;2023-05-07T04:13:52;16.60;78.00
78647;DHT22;67961;43.460;3.762;2023-05-07T04:16:17;16.60;77.80
78647;DHT22;67961;43.460;3.762;2023-05-07T04:18:46;16.70;77.70
78647;DHT22;67961;43.460;3.762;2023-05-07T04:21:19;16.70;77.60
78647;DHT22;67961;43.460;3.762;2023-05-07T04:23:49;16.70;77.50
78647;DHT22;67961;43.460;3.762;2023-05-07T04:26:15;16.70;77.40
78647;DHT22;67961;43.460;3.762;2023-05-07T04:28:41;16.70;77.20
78647;DHT22;67961;43.460;3.762;2023-05-07T04:31:07;16.70;77.20
78647;DHT22;67961;43.460;3.762;2023-05-07T04:33:33;16.70;77.10
78647;DHT22;67961;43.460;3.762;2023-05-07T04:36:03;16.70;77.00
78647;DHT22;67961;43.460;3.762;2023-05-07T04:38:30;16.70;76.90
78647;DHT22;67961;43.460;3.762;2023-05-07T04:40:57;16.70;76.80
78647;DHT22;67961;43.460;3.762;2023-05-07T04:43:23;16.70;76.70
78647;DHT22;67961;43.460;3.762;2023-05-07T04:45:51;16.60;76.60
78647;DHT22;67961;43.460;3.762;2023-05-07T04:48:17;16.60;76.40
78647;DHT22;67961;43.460;3.762;2023-05-07T04:50:46;16.70;76.30
78647;DHT22;67961;43.460;3.762;2023-05-07T04:53:12;16.70;76.20
78647;DHT22;67961;43.460;3.762;2023-05-07T04:55:38;16.80;76.00
78647;DHT22;67961;43.460;3.762;2023-05-07T04:58:03;16.80;75.90
78647;DHT22;67961;43.460;3.762;2023-05-07T05:00:30;16.90;75.70
78647;DHT22;67961;43.460;3.762;2023-05-07T05:02:56;16.90;75.70
78647;DHT22;67961;43.460;3.762;2023-05-07T05:05:21;17.00;75.50
78647;DHT22;67961;43.460;3.762;2023-05-07T05:07:47;17.00;75.40
78647;DHT22;67961;43.460;3.762;2023-05-07T05:10:13;17.00;75.40
78647;DHT22;67961;43.460;3.762;2023-05-07T05:12:38;17.10;75.20
78647;DHT22;67961;43.460;3.762;2023-05-07T05:15:05;17.20;75.10
78647;DHT22;67961;43.460;3.762;2023-05-07T05:17:30;17.20;75.10
78647;DHT22;67961;43.460;3.762;2023-05-07T05:19:56;17.20;75.00
78647;DHT22;67961;43.460;3.762;2023-05-07T05:22:22;17.30;75.00
78647;DHT22;67961;43.460;3.762;2023-05-07T05:24:47;17.40;75.00
78647;DHT22;67961;43.460;3.762;2023-05-07T05:27:13;17.50;74.50
78647;DHT22;67961;43.460;3.762;2023-05-07T05:29:38;17.50;74.30
78647;DHT22;67961;43.460;3.762;2023-05-07T05:32:04;17.60;73.60
78647;DHT22;67961;43.460;3.762;2023-05-07T05:34:30;17.70;73.30
78647;DHT22;67961;43.460;3.762;2023-05-07T05:36:55;17.80;72.90
78647;DHT22;67961;43.460;3.762;2023-05-07T05:39:21;17.80;72.40
78647;DHT22;67961;43.460;3.762;2023-05-07T05:41:48;17.80;72.20
78647;DHT22;67961;43.460;3.762;2023-05-07T05:44:14;18.00;71.60
78647;DHT22;67961;43.460;3.762;2023-05-07T05:46:39;18.00;70.80
78647;DHT22;67961;43.460;3.762;2023-05-07T05:49:05;18.20;70.40
78647;DHT22;67961;43.460;3.762;2023-05-07T05:51:31;18.30;69.90
78647;DHT22;67961;43.460;3.762;2023-05-07T05:53:56;18.40;69.80
78647;DHT22;67961;43.460;3.762;2023-05-07T05:56:22;18.50;69.40
78647;DHT22;67961;43.460;3.762;2023-05-07T05:58:48;18.60;68.70
78647;DHT22;67961;43.460;3.762;2023-05-07T06:01:13;18.60;68.00
78647;DHT22;67961;43.460;3.762;2023-05-07T06:03:39;18.70;68.00
78647;DHT22;67961;43.460;3.762;2023-05-07T06:06:05;18.80;67.60
78647;DHT22;67961;43.460;3.762;2023-05-07T06:08:30;18.90;67.30
78647;DHT22;67961;43.460;3.762;2023-05-07T06:10:56;18.90;67.20
78647;DHT22;67961;43.460;3.762;2023-05-07T06:13:22;18.90;67.30
78647;DHT22;67961;43.460;3.762;2023-05-07T06:15:49;18.90;67.90
78647;DHT22;67961;43.460;3.762;2023-05-07T06:18:15;18.90;67.70
78647;DHT22;67961;43.460;3.762;2023-05-07T06:20:41;18.80;68.50
78647;DHT22;67961;43.460;3.762;2023-05-07T06:23:06;18.70;68.70
78647;DHT22;67961;43.460;3.762;2023-05-07T06:25:32;18.60;68.00
78647;DHT22;67961;43.460;3.762;2023-05-07T06:27:57;18.60;67.50
78647;DHT22;67961;43.460;3.762;2023-05-07T06:30:23;18.70;67.50
78647;DHT22;67961;43.460;3.762;2023-05-07T06:32:49;18.80;67.20
78647;DHT22;67961;43.460;3.762;2023-05-07T06:35:15;18.90;67.50
78647;DHT22;67961;43.460;3.762;2023-05-07T06:37:41;19.20;66.30
78647;DHT22;67961;43.460;3.762;2023-05-07T06:40:08;19.40;65.40
78647;DHT22;67961;43.460;3.762;2023-05-07T06:42:35;19.50;64.70
78647;DHT22;67961;43.460;3.762;2023-05-07T06:45:00;19.70;64.80
78647;DHT22;67961;43.460;3.762;2023-05-07T06:47:26;19.70;64.10
78647;DHT22;67961;43.460;3.762;2023-05-07T06:49:52;19.70;63.70
78647;DHT22;67961;43.460;3.762;2023-05-07T06:52:17;19.70;63.50
78647;DHT22;67961;43.460;3.762;2023-05-07T06:54:43;19.60;63.70
78647;DHT22;67961;43.460;3.762;2023-05-07T06:57:09;19.50;64.00
78647;DHT22;67961;43.460;3.762;2023-05-07T06:59:34;19.50;63.50
78647;DHT22;67961;43.460;3.762;2023-05-07T07:02:00;19.50;64.10
78647;DHT22;67961;43.460;3.762;2023-05-07T07:04:25;19.50;63.60
78647;DHT22;67961;43.460;3.762;2023-05-07T07:06:54;19.60;62.90
78647;DHT22;67961;43.460;3.762;2023-05-07T07:09:20;19.70;62.80
78647;DHT22;67961;43.460;3.762;2023-05-07T07:11:46;19.80;62.50
78647;DHT22;67961;43.460;3.762;2023-05-07T07:14:11;20.00;62.20
78647;DHT22;67961;43.460;3.762;2023-05-07T07:16:37;20.10;61.70
78647;DHT22;67961;43.460;3.762;2023-05-07T07:19:02;20.30;61.30
78647;DHT22;67961;43.460;3.762;2023-05-07T07:21:28;20.40;60.70
78647;DHT22;67961;43.460;3.762;2023-05-07T07:23:54;20.40;60.40
78647;DHT22;67961;43.460;3.762;2023-05-07T07:26:19;20.50;60.70
78647;DHT22;67961;43.460;3.762;2023-05-07T07:28:46;20.50;60.30
78647;DHT22;67961;43.460;3.762;2023-05-07T07:31:12;20.50;60.20
78647;DHT22;67961;43.460;3.762;2023-05-07T07:33:38;20.50;60.40
78647;DHT22;67961;43.460;3.762;2023-05-07T07:36:05;20.50;60.50
78647;DHT22;67961;43.460;3.762;2023-05-07T07:38:31;20.60;59.50
78647;DHT22;67961;43.460;3.762;2023-05-07T07:40:56;20.60;59.70
78647;DHT22;67961;43.460;3.762;2023-05-07T07:43:22;20.80;59.10
78647;DHT22;67961;43.460;3.762;2023-05-07T07:45:48;20.90;58.60
78647;DHT22;67961;43.460;3.762;2023-05-07T07:48:14;20.90;58.30
78647;DHT22;67961;43.460;3.762;2023-05-07T07:50:40;21.00;58.00
78647;DHT22;67961;43.460;3.762;2023-05-07T07:53:05;21.10;57.20
78647;DHT22;67961;43.460;3.762;2023-05-07T07:55:31;21.40;57.00
78647;DHT22;67961;43.460;3.762;2023-05-07T07:57:57;21.70;55.70
78647;DHT22;67961;43.460;3.762;2023-05-07T08:00:23;23.30;53.90
78647;DHT22;67961;43.460;3.762;2023-05-07T08:02:49;25.00;50.50
78647;DHT22;67961;43.460;3.762;2023-05-07T08:05:14;26.40;48.20
78647;DHT22;67961;43.460;3.762;2023-05-07T08:07:41;29.00;44.00
78647;DHT22;67961;43.460;3.762;2023-05-07T08:10:06;29.30;43.00
78647;DHT22;67961;43.460;3.762;2023-05-07T08:12:32;30.30;42.70
78647;DHT22;67961;43.460;3.762;2023-05-07T08:14:58;31.80;40.50
78647;DHT22;67961;43.460;3.762;2023-05-07T08:17:24;32.70;39.00
78647;DHT22;67961;43.460;3.762;2023-05-07T08:19:49;33.50;38.40
78647;DHT22;67961;43.460;3.762;2023-05-07T08:22:15;30.30;41.60
78647;DHT22;67961;43.460;3.762;2023-05-07T08:24:43;27.70;44.80
78647;DHT22;67961;43.460;3.762;2023-05-07T08:27:08;26.70;46.40
78647;DHT22;67961;43.460;3.762;2023-05-07T08:29:34;26.60;47.30
78647;DHT22;67961;43.460;3.762;2023-05-07T08:32:01;26.50;47.20
78647;DHT22;67961;43.460;3.762;2023-05-07T08:34:26;26.30;47.90
78647;DHT22;67961;43.460;3.762;2023-05-07T08:36:52;26.50;49.00
78647;DHT22;67961;43.460;3.762;2023-05-07T08:39:18;26.10;48.70
78647;DHT22;67961;43.460;3.762;2023-05-07T08:41:48;25.60;48.70
78647;DHT22;67961;43.460;3.762;2023-05-07T08:44:21;25.00;50.30
78647;DHT22;67961;43.460;3.762;2023-05-07T08:46:48;25.00;50.90
78647;DHT22;67961;43.460;3.762;2023-05-07T08:49:17;25.60;50.20
78647;DHT22;67961;43.460;3.762;2023-05-07T08:51:42;26.00;48.60
78647;DHT22;67961;43.460;3.762;2023-05-07T08:54:09;26.10;50.50
78647;DHT22;67961;43.460;3.762;2023-05-07T08:56:36;26.80;49.70
78647;DHT22;67961;43.460;3.762;2023-05-07T08:59:02;27.30;48.40
78647;DHT22;67961;43.460;3.762;2023-05-07T09:01:32;27.50;46.90
78647;DHT22;67961;43.460;3.762;2023-05-07T09:03:57;27.50;48.40
78647;DHT22;67961;43.460;3.762;2023-05-07T09:06:23;27.60;48.50
78647;DHT22;67961;43.460;3.762;2023-05-07T09:08:53;28.00;46.90
78647;DHT22;67961;43.460;3.762;2023-05-07T09:11:21;28.00;46.80
78647;DHT22;67961;43.460;3.762;2023-05-07T09:13:48;28.00;47.20
78647;DHT22;67961;43.460;3.762;2023-05-07T09:16:14;28.00;47.80
78647;DHT22;67961;43.460;3.762;2023-05-07T09:18:44;28.10;46.20
78647;DHT22;67961;43.460;3.762;2023-05-07T09:21:17;28.00;46.80
78647;DHT22;67961;43.460;3.762;2023-05-07T09:23:43;28.20;46.40
78647;DHT22;67961;43.460;3.762;2023-05-07T09:26:09;28.20;45.90
78647;DHT22;67961;43.460;3.762;2023-05-07T09:28:40;27.50;47.70
78647;DHT22;67961;43.460;3.762;2023-05-07T09:31:08;27.80;47.00
78647;DHT22;67961;43.460;3.762;2023-05-07T09:33:34;27.90;46.90
78647;DHT22;67961;43.460;3.762;2023-05-07T09:36:04;28.00;46.10
78647;DHT22;67961;43.460;3.762;2023-05-07T09:38:31;28.00;46.60
78647;DHT22;67961;43.460;3.762;2023-05-07T09:41:04;27.90;46.60
78647;DHT22;67961;43.460;3.762;2023-05-07T09:43:34;28.10;46.90
78647;DHT22;67961;43.460;3.762;2023-05-07T09:46:07;28.10;47.20
78647;DHT22;67961;43.460;3.762;2023-05-07T09:48:35;28.10;46.40
78647;DHT22;67961;43.460;3.762;2023-05-07T09:51:02;28.00;46.10
78647;DHT22;67961;43.460;3.762;2023-05-07T09:53:30;28.00;46.60
78647;DHT22;67961;43.460;3.762;2023-05-07T09:55:57;28.10;47.30
78647;DHT22;67961;43.460;3.762;2023-05-07T09:58:24;28.10;46.40
78647;DHT22;67961;43.460;3.762;2023-05-07T10:00:51;27.90;46.10
78647;DHT22;67961;43.460;3.762;2023-05-07T10:03:19;27.30;46.20
78647;DHT22;67961;43.460;3.762;2023-05-07T10:05:46;27.40;47.90
78647;DHT22;67961;43.460;3.762;2023-05-07T10:08:13;27.50;45.70
78647;DHT22;67961;43.460;3.762;2023-05-07T10:10:40;27.80;46.50
78647;DHT22;67961;43.460;3.762;2023-05-07T10:13:06;27.90;46.80
78647;DHT22;67961;43.460;3.762;2023-05-07T10:15:36;27.40;48.20
78647;DHT22;67961;43.460;3.762;2023-05-07T10:18:03;26.80;47.70
78647;DHT22;67961;43.460;3.762;2023-05-07T10:20:30;27.00;46.20
78647;DHT22;67961;43.460;3.762;2023-05-07T10:22:57;27.10;47.30
78647;DHT22;67961;43.460;3.762;2023-05-07T10:25:29;26.60;47.40
78647;DHT22;67961;43.460;3.762;2023-05-07T10:27:59;25.80;48.00
78647;DHT22;67961;43.460;3.762;2023-05-07T10:30:47;25.60;49.00
78647;DHT22;67961;43.460;3.762;2023-05-07T10:33:17;26.20;49.00
78647;DHT22;67961;43.460;3.762;2023-05-07T10:35:45;26.60;48.00
78647;DHT22;67961;43.460;3.762;2023-05-07T10:38:12;26.30;47.70
78647;DHT22;67961;43.460;3.762;2023-05-07T10:40:37;26.30;47.70
78647;DHT22;67961;43.460;3.762;2023-05-07T10:43:05;26.30;48.40
78647;DHT22;67961;43.460;3.762;2023-05-07T10:45:31;26.60;48.40
78647;DHT22;67961;43.460;3.762;2023-05-07T10:48:16;27.20;46.40
78647;DHT22;67961;43.460;3.762;2023-05-07T10:50:43;27.30;45.80
78647;DHT22;67961;43.460;3.762;2023-05-07T10:55:48;26.50;48.00
78647;DHT22;67961;43.460;3.762;2023-05-07T11:00:50;26.20;48.40
78647;DHT22;67961;43.460;3.762;2023-05-07T11:03:17;26.20;48.60
78647;DHT22;67961;43.460;3.762;2023-05-07T11:05:42;26.70;47.70
78647;DHT22;67961;43.460;3.762;2023-05-07T11:08:09;26.80;47.50
78647;DHT22;67961;43.460;3.762;2023-05-07T11:10:55;27.10;47.50
78647;DHT22;67961;43.460;3.762;2023-05-07T11:13:46;27.60;46.40
78647;DHT22;67961;43.460;3.762;2023-05-07T11:16:23;27.70;45.50
78647;DHT22;67961;43.460;3.762;2023-05-07T11:18:54;27.50;46.70
78647;DHT22;67961;43.460;3.762;2023-05-07T11:23:58;27.40;45.90
78647;DHT22;67961;43.460;3.762;2023-05-07T11:26:25;27.20;47.90
78647;DHT22;67961;43.460;3.762;2023-05-07T11:28:52;27.00;47.90
78647;DHT22;67961;43.460;3.762;2023-05-07T11:31:25;26.80;46.90
78647;DHT22;67961;43.460;3.762;2023-05-07T11:33:52;26.70;49.30
78647;DHT22;67961;43.460;3.762;2023-05-07T11:36:19;26.90;47.00
78647;DHT22;67961;43.460;3.762;2023-05-07T11:38:47;26.00;50.40
78647;DHT22;67961;43.460;3.762;2023-05-07T11:41:13;25.00;52.90
78647;DHT22;67961;43.460;3.762;2023-05-07T11:43:53;24.80;54.70
78647;DHT22;67961;43.460;3.762;2023-05-07T11:46:20;24.60;56.20
78647;DHT22;67961;43.460;3.762;2023-05-07T11:48:46;24.00;57.40
78647;DHT22;67961;43.460;3.762;2023-05-07T11:51:11;23.70;58.70
78647;DHT22;67961;43.460;3.762;2023-05-07T11:53:44;23.60;58.60
78647;DHT22;67961;43.460;3.762;2023-05-07T11:56:12;23.60;58.80
78647;DHT22;67961;43.460;3.762;2023-05-07T11:58:39;23.60;59.00
78647;DHT22;67961;43.460;3.762;2023-05-07T12:01:08;23.60;59.40
78647;DHT22;67961;43.460;3.762;2023-05-07T12:03:35;23.70;57.90
78647;DHT22;67961;43.460;3.762;2023-05-07T12:06:05;23.50;57.60
78647;DHT22;67961;43.460;3.762;2023-05-07T12:08:31;23.70;57.10
78647;DHT22;67961;43.460;3.762;2023-05-07T12:10:56;24.00;55.90
78647;DHT22;67961;43.460;3.762;2023-05-07T12:13:24;23.90;56.50
78647;DHT22;67961;43.460;3.762;2023-05-07T12:15:54;23.90;56.50
78647;DHT22;67961;43.460;3.762;2023-05-07T12:18:21;23.70;56.40
78647;DHT22;67961;43.460;3.762;2023-05-07T12:20:47;23.80;56.20
78647;DHT22;67961;43.460;3.762;2023-05-07T12:23:13;23.80;56.00
78647;DHT22;67961;43.460;3.762;2023-05-07T12:25:40;23.80;55.00
78647;DHT22;67961;43.460;3.762;2023-05-07T12:28:13;23.80;55.30
78647;DHT22;67961;43.460;3.762;2023-05-07T12:30:42;24.00;55.40
78647;DHT22;67961;43.460;3.762;2023-05-07T12:33:08;24.10;55.40
78647;DHT22;67961;43.460;3.762;2023-05-07T12:35:39;24.10;54.10
78647;DHT22;67961;43.460;3.762;2023-05-07T12:38:13;23.50;54.80
78647;DHT22;67961;43.460;3.762;2023-05-07T12:40:48;23.20;55.10
78647;DHT22;67961;43.460;3.762;2023-05-07T12:43:25;23.20;54.90
78647;DHT22;67961;43.460;3.762;2023-05-07T12:45:54;23.30;54.50
78647;DHT22;67961;43.460;3.762;2023-05-07T12:48:21;23.40;54.90
78647;DHT22;67961;43.460;3.762;2023-05-07T12:50:50;23.70;54.20
78647;DHT22;67961;43.460;3.762;2023-05-07T12:53:17;24.00;53.60
78647;DHT22;67961;43.460;3.762;2023-05-07T12:55:46;24.40;52.40
78647;DHT22;67961;43.460;3.762;2023-05-07T12:58:20;24.80;51.00
78647;DHT22;67961;43.460;3.762;2023-05-07T13:00:51;25.20;50.30
78647;DHT22;67961;43.460;3.762;2023-05-07T13:03:28;25.50;48.50
78647;DHT22;67961;43.460;3.762;2023-05-07T13:05:58;25.60;48.10
78647;DHT22;67961;43.460;3.762;2023-05-07T13:10:54;26.20;46.90
78647;DHT22;67961;43.460;3.762;2023-05-07T13:13:20;26.40;47.20
78647;DHT22;67961;43.460;3.762;2023-05-07T13:15:47;26.40;46.50
78647;DHT22;67961;43.460;3.762;2023-05-07T13:18:12;26.50;46.50
78647;DHT22;67961;43.460;3.762;2023-05-07T13:20:38;26.50;46.70
78647;DHT22;67961;43.460;3.762;2023-05-07T13:23:03;26.50;45.80
78647;DHT22;67961;43.460;3.762;2023-05-07T13:25:30;26.40;46.60
78647;DHT22;67961;43.460;3.762;2023-05-07T13:27:59;26.40;46.50
78647;DHT22;67961;43.460;3.762;2023-05-07T13:30:24;26.40;46.00
78647;DHT22;67961;43.460;3.762;2023-05-07T13:32:52;26.30;44.00
78647;DHT22;67961;43.460;3.762;2023-05-07T13:35:20;26.00;45.80
78647;DHT22;67961;43.460;3.762;2023-05-07T13:37:46;25.80;46.20
78647;DHT22;67961;43.460;3.762;2023-05-07T13:40:13;25.60;46.20
78647;DHT22;67961;43.460;3.762;2023-05-07T13:42:39;25.70;46.00
78647;DHT22;67961;43.460;3.762;2023-05-07T13:45:05;25.80;45.70
78647;DHT22;67961;43.460;3.762;2023-05-07T13:47:31;26.00;45.40
78647;DHT22;67961;43.460;3.762;2023-05-07T13:49:57;26.20;45.30
78647;DHT22;67961;43.460;3.762;2023-05-07T13:52:22;26.30;45.10
78647;DHT22;67961;43.460;3.762;2023-05-07T13:54:48;26.40;44.90
78647;DHT22;67961;43.460;3.762;2023-05-07T13:57:14;26.40;45.00
78647;DHT22;67961;43.460;3.762;2023-05-07T13:59:40;26.30;45.50
78647;DHT22;67961;43.460;3.762;2023-05-07T14:02:06;26.10;44.60
78647;DHT22;67961;43.460;3.762;2023-05-07T14:04:32;26.20;44.40
78647;DHT22;67961;43.460;3.762;2023-05-07T14:06:58;26.10;44.40
78647;DHT22;67961;43.460;3.762;2023-05-07T14:09:23;26.00;44.80
78647;DHT22;67961;43.460;3.762;2023-05-07T14:11:49;26.10;45.80
78647;DHT22;67961;43.460;3.762;2023-05-07T14:14:18;26.00;47.50
78647;DHT22;67961;43.460;3.762;2023-05-07T14:16:44;25.00;54.30
78647;DHT22;67961;43.460;3.762;2023-05-07T14:19:11;24.60;50.50
78647;DHT22;67961;43.460;3.762;2023-05-07T14:21:37;25.10;47.00
78647;DHT22;67961;43.460;3.762;2023-05-07T14:24:03;25.50;46.00
78647;DHT22;67961;43.460;3.762;2023-05-07T14:26:28;25.80;45.80
78647;DHT22;67961;43.460;3.762;2023-05-07T14:28:54;25.80;45.20
78647;DHT22;67961;43.460;3.762;2023-05-07T14:31:22;26.00;45.00
78647;DHT22;67961;43.460;3.762;2023-05-07T14:33:48;26.00;44.80
78647;DHT22;67961;43.460;3.762;2023-05-07T14:36:16;26.10;44.90
78647;DHT22;67961;43.460;3.762;2023-05-07T14:38:42;26.20;44.60
78647;DHT22;67961;43.460;3.762;2023-05-07T14:41:08;26.30;44.00
78647;DHT22;67961;43.460;3.762;2023-05-07T14:43:34;26.20;43.70
78647;DHT22;67961;43.460;3.762;2023-05-07T14:46:00;26.10;44.00
78647;DHT22;67961;43.460;3.762;2023-05-07T14:48:25;26.00;44.20
78647;DHT22;67961;43.460;3.762;2023-05-07T14:50:51;25.80;44.50
78647;DHT22;67961;43.460;3.762;2023-05-07T14:53:16;25.80;45.10
78647;DHT22;67961;43.460;3.762;2023-05-07T14:55:42;25.90;45.30
78647;DHT22;67961;43.460;3.762;2023-05-07T14:58:08;25.90;45.50
78647;DHT22;67961;43.460;3.762;2023-05-07T15:00:34;25.90;46.20
78647;DHT22;67961;43.460;3.762;2023-05-07T15:03:05;25.90;45.30
78647;DHT22;67961;43.460;3.762;2023-05-07T15:05:32;25.90;45.30
78647;DHT22;67961;43.460;3.762;2023-05-07T15:07:58;26.00;45.00
78647;DHT22;67961;43.460;3.762;2023-05-07T15:10:24;26.10;45.20
78647;DHT22;67961;43.460;3.762;2023-05-07T15:12:49;26.00;45.40
78647;DHT22;67961;43.460;3.762;2023-05-07T15:15:15;25.90;45.10
78647;DHT22;67961;43.460;3.762;2023-05-07T15:17:41;25.80;45.20
78647;DHT22;67961;43.460;3.762;2023-05-07T15:20:07;25.80;45.10
78647;DHT22;67961;43.460;3.762;2023-05-07T15:22:33;25.60;44.80
78647;DHT22;67961;43.460;3.762;2023-05-07T15:24:59;25.60;44.70
78647;DHT22;67961;43.460;3.762;2023-05-07T15:27:25;25.50;45.10
78647;DHT22;67961;43.460;3.762;2023-05-07T15:29:51;25.40;45.50
78647;DHT22;67961;43.460;3.762;2023-05-07T15:32:17;25.50;44.70
78647;DHT22;67961;43.460;3.762;2023-05-07T15:34:43;25.50;45.10
78647;DHT22;67961;43.460;3.762;2023-05-07T15:37:08;25.50;44.90